KPBI/PBI METAR and TAF weather

Enter ICAO airport designator
Station Type Date Time Source
KPBI METAR 2019/09/20 19:53 UTC NOAA

KPBI 201953Z 06018G28KT 10SM SCT032 BKN055 29/20 A3004 RMK AO2 PK WND 06030/1916 SLP170 T02940200 $


Station Type Date Time Source
KPBI Decoded METAR 2019/09/20 19:53 UTC NOAA

PALM BEACH INTERNATIONAL, FL, United States (KPBI) 26-41N 80-06W 6M
Sep 20, 2019 - 03:53 PM EDT / 2019.09.20 1953 UTC
Wind: from the ENE (060 degrees) at 21 MPH (18 KT) gusting to 32 MPH (28 KT):0
Visibility: 10 mile(s):0
Sky conditions: mostly cloudy
Temperature: 84.9 F (29.4 C)
Dew Point: 68.0 F (20.0 C)
Relative Humidity: 57%
Pressure (altimeter): 30.04 in. Hg (1017 hPa)
ob: KPBI 201953Z 06018G28KT 10SM SCT032 BKN055 29/20 A3004 RMK AO2 PK WND 06030/1916 SLP170 T02940200
cycle: 20

Station Type Date Time Source
KPBI TAF 2019/09/20 18:39 UTC NOAA

TAF KPBI 201728Z 2018/2118 08020G30KT P6SM VCSH SCT030 BKN050
TEMPO 2018/2021 4SM SHRA BKN025
FM210000 09015G25KT P6SM VCSH SCT025 BKN050
FM211000 08020G30KT P6SM VCSH SCT025 BKN050

Example: see airport list